sensor_id;sensor_type;location;lat;lon;timestamp;P1;durP1;ratioP1;P2;durP2;ratioP2
76121;SDS011;70471;53.200;6.080;2023-11-21T00:01:43;0.77;;;0.40;;
76121;SDS011;70471;53.200;6.080;2023-11-21T00:06:36;1.10;;;0.30;;
76121;SDS011;70471;53.200;6.080;2023-11-21T00:11:28;0.95;;;0.50;;
76121;SDS011;70471;53.200;6.080;2023-11-21T00:16:23;2.08;;;0.60;;
76121;SDS011;70471;53.200;6.080;2023-11-21T00:21:16;0.52;;;0.25;;
76121;SDS011;70471;53.200;6.080;2023-11-21T00:26:08;1.55;;;0.45;;
76121;SDS011;70471;53.200;6.080;2023-11-21T00:31:01;0.93;;;0.30;;
76121;SDS011;70471;53.200;6.080;2023-11-21T00:35:55;1.30;;;0.40;;
76121;SDS011;70471;53.200;6.080;2023-11-21T00:40:48;1.75;;;0.43;;
76121;SDS011;70471;53.200;6.080;2023-11-21T00:45:40;0.68;;;0.30;;
76121;SDS011;70471;53.200;6.080;2023-11-21T00:50:32;0.77;;;0.40;;
76121;SDS011;70471;53.200;6.080;2023-11-21T00:55:26;0.70;;;0.28;;
76121;SDS011;70471;53.200;6.080;2023-11-21T01:00:20;0.70;;;0.30;;
76121;SDS011;70471;53.200;6.080;2023-11-21T01:05:13;1.05;;;0.03;;
76121;SDS011;70471;53.200;6.080;2023-11-21T01:10:06;0.75;;;0.20;;
76121;SDS011;70471;53.200;6.080;2023-11-21T01:15:01;0.50;;;0.30;;
76121;SDS011;70471;53.200;6.080;2023-11-21T01:19:53;0.40;;;0.20;;
76121;SDS011;70471;53.200;6.080;2023-11-21T01:24:46;0.55;;;0.30;;
76121;SDS011;70471;53.200;6.080;2023-11-21T01:29:38;0.55;;;0.25;;
76121;SDS011;70471;53.200;6.080;2023-11-21T01:34:32;1.25;;;0.10;;
76121;SDS011;70471;53.200;6.080;2023-11-21T01:39:24;0.40;;;0.30;;
76121;SDS011;70471;53.200;6.080;2023-11-21T01:44:17;0.95;;;0.43;;
76121;SDS011;70471;53.200;6.080;2023-11-21T01:49:09;1.38;;;0.30;;
76121;SDS011;70471;53.200;6.080;2023-11-21T01:54:05;0.38;;;0.20;;
76121;SDS011;70471;53.200;6.080;2023-11-21T01:58:58;0.57;;;0.22;;
76121;SDS011;70471;53.200;6.080;2023-11-21T02:03:50;0.45;;;0.30;;
76121;SDS011;70471;53.200;6.080;2023-11-21T02:08:42;0.13;;;0.10;;
76121;SDS011;70471;53.200;6.080;2023-11-21T02:13:36;0.40;;;0.28;;
76121;SDS011;70471;53.200;6.080;2023-11-21T02:18:28;0.22;;;0.15;;
76121;SDS011;70471;53.200;6.080;2023-11-21T02:23:22;0.50;;;0.30;;
76121;SDS011;70471;53.200;6.080;2023-11-21T02:28:18;0.20;;;0.20;;
76121;SDS011;70471;53.200;6.080;2023-11-21T02:33:15;1.08;;;0.35;;
76121;SDS011;70471;53.200;6.080;2023-11-21T02:38:07;0.43;;;0.13;;
76121;SDS011;70471;53.200;6.080;2023-11-21T02:43:01;0.32;;;0.10;;
76121;SDS011;70471;53.200;6.080;2023-11-21T02:47:55;0.22;;;0.10;;
76121;SDS011;70471;53.200;6.080;2023-11-21T02:52:48;0.75;;;0.20;;
76121;SDS011;70471;53.200;6.080;2023-11-21T02:57:40;0.65;;;0.10;;
76121;SDS011;70471;53.200;6.080;2023-11-21T03:02:33;0.50;;;0.10;;
76121;SDS011;70471;53.200;6.080;2023-11-21T03:07:28;0.52;;;0.20;;
76121;SDS011;70471;53.200;6.080;2023-11-21T03:12:21;0.03;;;0.03;;
76121;SDS011;70471;53.200;6.080;2023-11-21T03:17:13;0.10;;;0.10;;
76121;SDS011;70471;53.200;6.080;2023-11-21T03:22:08;0.10;;;0.10;;
76121;SDS011;70471;53.200;6.080;2023-11-21T03:27:00;0.15;;;0.08;;
76121;SDS011;70471;53.200;6.080;2023-11-21T03:31:52;0.05;;;0.00;;
76121;SDS011;70471;53.200;6.080;2023-11-21T03:36:44;0.15;;;0.10;;
76121;SDS011;70471;53.200;6.080;2023-11-21T03:41:39;0.03;;;0.03;;
76121;SDS011;70471;53.200;6.080;2023-11-21T03:46:31;0.57;;;0.30;;
76121;SDS011;70471;53.200;6.080;2023-11-21T03:51:24;0.25;;;0.10;;
76121;SDS011;70471;53.200;6.080;2023-11-21T03:56:16;0.35;;;0.10;;
76121;SDS011;70471;53.200;6.080;2023-11-21T04:01:10;0.17;;;0.10;;
76121;SDS011;70471;53.200;6.080;2023-11-21T04:06:02;0.38;;;0.10;;
76121;SDS011;70471;53.200;6.080;2023-11-21T04:10:56;0.20;;;0.10;;
76121;SDS011;70471;53.200;6.080;2023-11-21T04:15:48;0.15;;;0.10;;
76121;SDS011;70471;53.200;6.080;2023-11-21T04:20:42;0.10;;;0.10;;
76121;SDS011;70471;53.200;6.080;2023-11-21T04:25:34;0.32;;;0.20;;
76121;SDS011;70471;53.200;6.080;2023-11-21T04:30:27;0.30;;;0.20;;
76121;SDS011;70471;53.200;6.080;2023-11-21T04:35:19;0.25;;;0.10;;
76121;SDS011;70471;53.200;6.080;2023-11-21T04:40:13;0.15;;;0.15;;
76121;SDS011;70471;53.200;6.080;2023-11-21T04:45:05;0.50;;;0.20;;
76121;SDS011;70471;53.200;6.080;2023-11-21T04:50:01;0.60;;;0.20;;
76121;SDS011;70471;53.200;6.080;2023-11-21T04:54:54;0.98;;;0.30;;
76121;SDS011;70471;53.200;6.080;2023-11-21T04:59:50;0.80;;;0.40;;
76121;SDS011;70471;53.200;6.080;2023-11-21T05:04:42;0.50;;;0.30;;
76121;SDS011;70471;53.200;6.080;2023-11-21T05:09:34;0.32;;;0.20;;
76121;SDS011;70471;53.200;6.080;2023-11-21T05:14:28;0.20;;;0.20;;
76121;SDS011;70471;53.200;6.080;2023-11-21T05:19:22;0.60;;;0.38;;
76121;SDS011;70471;53.200;6.080;2023-11-21T05:24:14;0.40;;;0.30;;
76121;SDS011;70471;53.200;6.080;2023-11-21T05:29:06;0.95;;;0.20;;
76121;SDS011;70471;53.200;6.080;2023-11-21T05:33:59;1.30;;;0.60;;
76121;SDS011;70471;53.200;6.080;2023-11-21T05:38:53;0.98;;;0.40;;
76121;SDS011;70471;53.200;6.080;2023-11-21T05:43:45;0.40;;;0.20;;
76121;SDS011;70471;53.200;6.080;2023-11-21T05:48:37;0.47;;;0.25;;
76121;SDS011;70471;53.200;6.080;2023-11-21T05:53:29;0.73;;;0.20;;
76121;SDS011;70471;53.200;6.080;2023-11-21T05:58:23;0.93;;;0.70;;
76121;SDS011;70471;53.200;6.080;2023-11-21T06:03:16;0.57;;;0.43;;
76121;SDS011;70471;53.200;6.080;2023-11-21T06:08:08;0.57;;;0.43;;
76121;SDS011;70471;53.200;6.080;2023-11-21T06:13:00;0.70;;;0.30;;
76121;SDS011;70471;53.200;6.080;2023-11-21T06:17:55;0.35;;;0.28;;
76121;SDS011;70471;53.200;6.080;2023-11-21T06:22:48;1.33;;;0.60;;
76121;SDS011;70471;53.200;6.080;2023-11-21T06:27:41;1.05;;;0.70;;
76121;SDS011;70471;53.200;6.080;2023-11-21T06:32:34;1.08;;;0.63;;
76121;SDS011;70471;53.200;6.080;2023-11-21T06:37:29;0.65;;;0.40;;
76121;SDS011;70471;53.200;6.080;2023-11-21T06:42:22;1.63;;;0.70;;
76121;SDS011;70471;53.200;6.080;2023-11-21T06:47:14;1.33;;;0.57;;
76121;SDS011;70471;53.200;6.080;2023-11-21T06:52:06;1.25;;;0.40;;
76121;SDS011;70471;53.200;6.080;2023-11-21T06:56:59;1.10;;;0.70;;
76121;SDS011;70471;53.200;6.080;2023-11-21T07:01:52;1.67;;;0.80;;
76121;SDS011;70471;53.200;6.080;2023-11-21T07:06:44;1.10;;;0.65;;
76121;SDS011;70471;53.200;6.080;2023-11-21T07:11:36;1.02;;;0.50;;
76121;SDS011;70471;53.200;6.080;2023-11-21T07:16:30;1.52;;;0.70;;
76121;SDS011;70471;53.200;6.080;2023-11-21T07:21:25;1.45;;;0.85;;
76121;SDS011;70471;53.200;6.080;2023-11-21T07:26:17;1.35;;;0.82;;
76121;SDS011;70471;53.200;6.080;2023-11-21T07:31:09;0.95;;;0.70;;
76121;SDS011;70471;53.200;6.080;2023-11-21T07:36:03;2.92;;;1.00;;
76121;SDS011;70471;53.200;6.080;2023-11-21T07:40:55;1.58;;;0.60;;
76121;SDS011;70471;53.200;6.080;2023-11-21T07:45:48;0.88;;;0.70;;
76121;SDS011;70471;53.200;6.080;2023-11-21T07:50:40;3.80;;;0.73;;
76121;SDS011;70471;53.200;6.080;2023-11-21T07:55:33;1.58;;;0.85;;
76121;SDS011;70471;53.200;6.080;2023-11-21T08:00:28;0.70;;;0.52;;
76121;SDS011;70471;53.200;6.080;2023-11-21T08:05:21;0.70;;;0.60;;
76121;SDS011;70471;53.200;6.080;2023-11-21T08:10:13;1.27;;;0.68;;
76121;SDS011;70471;53.200;6.080;2023-11-21T08:15:08;1.48;;;0.70;;
76121;SDS011;70471;53.200;6.080;2023-11-21T08:20:00;0.68;;;0.40;;
76121;SDS011;70471;53.200;6.080;2023-11-21T08:24:53;0.50;;;0.50;;
76121;SDS011;70471;53.200;6.080;2023-11-21T08:29:45;0.65;;;0.30;;
76121;SDS011;70471;53.200;6.080;2023-11-21T08:34:39;1.13;;;0.63;;
76121;SDS011;70471;53.200;6.080;2023-11-21T08:39:33;0.68;;;0.40;;
76121;SDS011;70471;53.200;6.080;2023-11-21T08:44:25;0.65;;;0.43;;
76121;SDS011;70471;53.200;6.080;2023-11-21T08:49:17;0.85;;;0.63;;
76121;SDS011;70471;53.200;6.080;2023-11-21T08:54:10;1.30;;;0.57;;
76121;SDS011;70471;53.200;6.080;2023-11-21T08:59:02;0.63;;;0.40;;
76121;SDS011;70471;53.200;6.080;2023-11-21T09:03:55;0.70;;;0.55;;
76121;SDS011;70471;53.200;6.080;2023-11-21T09:08:46;0.90;;;0.57;;
76121;SDS011;70471;53.200;6.080;2023-11-21T09:13:39;1.83;;;0.70;;
76121;SDS011;70471;53.200;6.080;2023-11-21T09:18:32;1.20;;;0.60;;
76121;SDS011;70471;53.200;6.080;2023-11-21T09:23:24;0.82;;;0.60;;
76121;SDS011;70471;53.200;6.080;2023-11-21T09:28:16;1.50;;;0.60;;
76121;SDS011;70471;53.200;6.080;2023-11-21T09:33:09;0.52;;;0.45;;
76121;SDS011;70471;53.200;6.080;2023-11-21T09:38:01;0.55;;;0.45;;
76121;SDS011;70471;53.200;6.080;2023-11-21T09:42:55;0.60;;;0.52;;
76121;SDS011;70471;53.200;6.080;2023-11-21T09:47:48;0.70;;;0.50;;
76121;SDS011;70471;53.200;6.080;2023-11-21T09:52:45;1.33;;;0.73;;
76121;SDS011;70471;53.200;6.080;2023-11-21T09:57:44;1.30;;;0.95;;
76121;SDS011;70471;53.200;6.080;2023-11-21T10:02:38;0.70;;;0.52;;
76121;SDS011;70471;53.200;6.080;2023-11-21T10:07:31;1.23;;;0.85;;
76121;SDS011;70471;53.200;6.080;2023-11-21T10:12:27;0.70;;;0.55;;
76121;SDS011;70471;53.200;6.080;2023-11-21T10:17:19;1.42;;;0.40;;
76121;SDS011;70471;53.200;6.080;2023-11-21T10:22:16;0.93;;;0.60;;
76121;SDS011;70471;53.200;6.080;2023-11-21T10:27:09;0.80;;;0.60;;
76121;SDS011;70471;53.200;6.080;2023-11-21T10:32:05;0.85;;;0.60;;
76121;SDS011;70471;53.200;6.080;2023-11-21T10:36:57;2.30;;;0.70;;
76121;SDS011;70471;53.200;6.080;2023-11-21T10:41:49;1.08;;;0.60;;
76121;SDS011;70471;53.200;6.080;2023-11-21T10:46:41;0.63;;;0.57;;
76121;SDS011;70471;53.200;6.080;2023-11-21T10:51:35;0.85;;;0.68;;
76121;SDS011;70471;53.200;6.080;2023-11-21T10:56:27;1.10;;;0.90;;
76121;SDS011;70471;53.200;6.080;2023-11-21T11:01:20;0.73;;;0.70;;
76121;SDS011;70471;53.200;6.080;2023-11-21T11:06:19;0.60;;;0.60;;
76121;SDS011;70471;53.200;6.080;2023-11-21T11:11:14;0.73;;;0.60;;
76121;SDS011;70471;53.200;6.080;2023-11-21T11:16:07;1.10;;;0.65;;
76121;SDS011;70471;53.200;6.080;2023-11-21T11:21:01;0.75;;;0.55;;
76121;SDS011;70471;53.200;6.080;2023-11-21T11:26:06;0.80;;;0.60;;
76121;SDS011;70471;53.200;6.080;2023-11-21T11:31:10;1.00;;;0.70;;
76121;SDS011;70471;53.200;6.080;2023-11-21T11:36:13;0.63;;;0.40;;
76121;SDS011;70471;53.200;6.080;2023-11-21T11:41:11;1.10;;;0.70;;
76121;SDS011;70471;53.200;6.080;2023-11-21T11:46:03;0.60;;;0.60;;
76121;SDS011;70471;53.200;6.080;2023-11-21T11:51:02;0.57;;;0.50;;
76121;SDS011;70471;53.200;6.080;2023-11-21T11:55:57;0.90;;;0.70;;
76121;SDS011;70471;53.200;6.080;2023-11-21T12:01:16;0.93;;;0.73;;
76121;SDS011;70471;53.200;6.080;2023-11-21T12:06:11;0.60;;;0.60;;
76121;SDS011;70471;53.200;6.080;2023-11-21T12:11:04;0.80;;;0.50;;
76121;SDS011;70471;53.200;6.080;2023-11-21T12:15:56;0.73;;;0.70;;
76121;SDS011;70471;53.200;6.080;2023-11-21T12:20:48;0.90;;;0.70;;
76121;SDS011;70471;53.200;6.080;2023-11-21T12:25:42;0.60;;;0.47;;
76121;SDS011;70471;53.200;6.080;2023-11-21T12:30:35;1.13;;;0.52;;
76121;SDS011;70471;53.200;6.080;2023-11-21T12:35:28;0.57;;;0.50;;
76121;SDS011;70471;53.200;6.080;2023-11-21T12:40:24;0.90;;;0.70;;
76121;SDS011;70471;53.200;6.080;2023-11-21T12:45:22;2.08;;;0.80;;
76121;SDS011;70471;53.200;6.080;2023-11-21T12:50:18;1.65;;;0.70;;
76121;SDS011;70471;53.200;6.080;2023-11-21T12:55:16;1.60;;;0.68;;
76121;SDS011;70471;53.200;6.080;2023-11-21T13:00:09;1.20;;;0.60;;
76121;SDS011;70471;53.200;6.080;2023-11-21T13:05:06;0.68;;;0.60;;
76121;SDS011;70471;53.200;6.080;2023-11-21T13:10:08;1.25;;;0.80;;
76121;SDS011;70471;53.200;6.080;2023-11-21T13:15:03;0.90;;;0.60;;
76121;SDS011;70471;53.200;6.080;2023-11-21T13:19:56;0.90;;;0.70;;
76121;SDS011;70471;53.200;6.080;2023-11-21T13:24:49;0.57;;;0.57;;
76121;SDS011;70471;53.200;6.080;2023-11-21T13:29:43;1.00;;;0.90;;
76121;SDS011;70471;53.200;6.080;2023-11-21T13:34:35;1.00;;;0.85;;
76121;SDS011;70471;53.200;6.080;2023-11-21T13:39:27;1.30;;;0.98;;
76121;SDS011;70471;53.200;6.080;2023-11-21T13:44:21;0.88;;;0.80;;
76121;SDS011;70471;53.200;6.080;2023-11-21T13:49:24;1.55;;;1.00;;
76121;SDS011;70471;53.200;6.080;2023-11-21T13:54:16;1.00;;;0.80;;
76121;SDS011;70471;53.200;6.080;2023-11-21T13:59:10;0.95;;;0.73;;
76121;SDS011;70471;53.200;6.080;2023-11-21T14:04:12;1.48;;;1.13;;
76121;SDS011;70471;53.200;6.080;2023-11-21T14:09:09;1.55;;;0.90;;
76121;SDS011;70471;53.200;6.080;2023-11-21T14:14:04;1.85;;;1.10;;
76121;SDS011;70471;53.200;6.080;2023-11-21T14:18:56;1.15;;;0.68;;
76121;SDS011;70471;53.200;6.080;2023-11-21T14:23:55;1.48;;;1.02;;
76121;SDS011;70471;53.200;6.080;2023-11-21T14:28:48;1.23;;;0.95;;
76121;SDS011;70471;53.200;6.080;2023-11-21T14:33:40;1.25;;;1.00;;
76121;SDS011;70471;53.200;6.080;2023-11-21T14:38:31;1.08;;;0.80;;
76121;SDS011;70471;53.200;6.080;2023-11-21T14:43:25;1.73;;;1.00;;
76121;SDS011;70471;53.200;6.080;2023-11-21T14:48:19;0.90;;;0.70;;
76121;SDS011;70471;53.200;6.080;2023-11-21T14:53:31;0.98;;;0.75;;
76121;SDS011;70471;53.200;6.080;2023-11-21T14:58:45;2.78;;;0.80;;
76121;SDS011;70471;53.200;6.080;2023-11-21T15:03:37;1.10;;;0.70;;
76121;SDS011;70471;53.200;6.080;2023-11-21T15:08:38;3.40;;;1.00;;
76121;SDS011;70471;53.200;6.080;2023-11-21T15:13:33;3.60;;;1.73;;
76121;SDS011;70471;53.200;6.080;2023-11-21T15:18:27;3.05;;;0.80;;
76121;SDS011;70471;53.200;6.080;2023-11-21T15:23:19;0.52;;;0.47;;
76121;SDS011;70471;53.200;6.080;2023-11-21T15:28:12;0.60;;;0.60;;
76121;SDS011;70471;53.200;6.080;2023-11-21T15:33:04;0.70;;;0.70;;
76121;SDS011;70471;53.200;6.080;2023-11-21T15:37:59;0.98;;;0.70;;
76121;SDS011;70471;53.200;6.080;2023-11-21T15:42:51;1.48;;;0.80;;
76121;SDS011;70471;53.200;6.080;2023-11-21T15:47:43;0.52;;;0.45;;
76121;SDS011;70471;53.200;6.080;2023-11-21T15:52:36;1.15;;;0.70;;
76121;SDS011;70471;53.200;6.080;2023-11-21T15:57:29;0.57;;;0.57;;
76121;SDS011;70471;53.200;6.080;2023-11-21T16:02:21;0.65;;;0.63;;
76121;SDS011;70471;53.200;6.080;2023-11-21T16:07:13;0.60;;;0.45;;
76121;SDS011;70471;53.200;6.080;2023-11-21T16:16:59;1.00;;;0.60;;
76121;SDS011;70471;53.200;6.080;2023-11-21T16:21:50;0.60;;;0.60;;
76121;SDS011;70471;53.200;6.080;2023-11-21T16:26:43;0.70;;;0.70;;
76121;SDS011;70471;53.200;6.080;2023-11-21T16:31:35;0.60;;;0.60;;
76121;SDS011;70471;53.200;6.080;2023-11-21T16:36:29;1.80;;;0.57;;
76121;SDS011;70471;53.200;6.080;2023-11-21T16:41:21;0.47;;;0.40;;
76121;SDS011;70471;53.200;6.080;2023-11-21T16:46:13;0.80;;;0.50;;
76121;SDS011;70471;53.200;6.080;2023-11-21T16:51:06;0.50;;;0.40;;
76121;SDS011;70471;53.200;6.080;2023-11-21T16:56:03;0.95;;;0.52;;
76121;SDS011;70471;53.200;6.080;2023-11-21T17:00:55;0.50;;;0.40;;
76121;SDS011;70471;53.200;6.080;2023-11-21T17:05:48;0.80;;;0.50;;
76121;SDS011;70471;53.200;6.080;2023-11-21T17:10:39;1.45;;;0.50;;
76121;SDS011;70471;53.200;6.080;2023-11-21T17:15:33;2.97;;;0.68;;
76121;SDS011;70471;53.200;6.080;2023-11-21T17:20:25;0.60;;;0.50;;
76121;SDS011;70471;53.200;6.080;2023-11-21T17:25:17;0.68;;;0.63;;
76121;SDS011;70471;53.200;6.080;2023-11-21T17:30:09;7.50;;;0.50;;
76121;SDS011;70471;53.200;6.080;2023-11-21T17:35:04;1.42;;;0.80;;
76121;SDS011;70471;53.200;6.080;2023-11-21T17:39:56;2.38;;;0.50;;
76121;SDS011;70471;53.200;6.080;2023-11-21T17:44:49;0.45;;;0.40;;
76121;SDS011;70471;53.200;6.080;2023-11-21T17:49:41;0.77;;;0.60;;
76121;SDS011;70471;53.200;6.080;2023-11-21T17:54:34;0.40;;;0.40;;
76121;SDS011;70471;53.200;6.080;2023-11-21T17:59:30;0.68;;;0.60;;
76121;SDS011;70471;53.200;6.080;2023-11-21T18:04:21;0.88;;;0.68;;
76121;SDS011;70471;53.200;6.080;2023-11-21T18:09:14;0.63;;;0.47;;
76121;SDS011;70471;53.200;6.080;2023-11-21T18:14:08;1.25;;;0.60;;
76121;SDS011;70471;53.200;6.080;2023-11-21T18:19:01;1.00;;;0.70;;
76121;SDS011;70471;53.200;6.080;2023-11-21T18:23:53;0.50;;;0.50;;
76121;SDS011;70471;53.200;6.080;2023-11-21T18:28:45;1.02;;;0.60;;
76121;SDS011;70471;53.200;6.080;2023-11-21T18:33:39;0.68;;;0.52;;
76121;SDS011;70471;53.200;6.080;2023-11-21T18:38:32;1.40;;;1.30;;
76121;SDS011;70471;53.200;6.080;2023-11-21T18:43:24;0.80;;;0.57;;
76121;SDS011;70471;53.200;6.080;2023-11-21T18:48:15;0.88;;;0.60;;
76121;SDS011;70471;53.200;6.080;2023-11-21T18:53:11;1.58;;;0.85;;
76121;SDS011;70471;53.200;6.080;2023-11-21T18:58:05;1.83;;;0.93;;
76121;SDS011;70471;53.200;6.080;2023-11-21T19:02:57;0.80;;;0.60;;
76121;SDS011;70471;53.200;6.080;2023-11-21T19:07:50;1.15;;;0.50;;
76121;SDS011;70471;53.200;6.080;2023-11-21T19:12:44;1.63;;;0.80;;
76121;SDS011;70471;53.200;6.080;2023-11-21T19:17:37;1.45;;;0.60;;
76121;SDS011;70471;53.200;6.080;2023-11-21T19:22:29;1.00;;;0.75;;
76121;SDS011;70471;53.200;6.080;2023-11-21T19:27:21;1.17;;;0.82;;
76121;SDS011;70471;53.200;6.080;2023-11-21T19:32:14;1.17;;;0.57;;
76121;SDS011;70471;53.200;6.080;2023-11-21T19:37:06;0.57;;;0.57;;
76121;SDS011;70471;53.200;6.080;2023-11-21T19:41:58;1.55;;;0.80;;
76121;SDS011;70471;53.200;6.080;2023-11-21T19:46:50;0.82;;;0.60;;
76121;SDS011;70471;53.200;6.080;2023-11-21T19:51:43;0.55;;;0.50;;
76121;SDS011;70471;53.200;6.080;2023-11-21T19:56:37;1.02;;;0.60;;
76121;SDS011;70471;53.200;6.080;2023-11-21T20:01:29;0.63;;;0.63;;
76121;SDS011;70471;53.200;6.080;2023-11-21T20:06:21;0.65;;;0.52;;
76121;SDS011;70471;53.200;6.080;2023-11-21T20:11:15;0.98;;;0.68;;
76121;SDS011;70471;53.200;6.080;2023-11-21T20:16:11;1.20;;;0.50;;
76121;SDS011;70471;53.200;6.080;2023-11-21T20:21:05;1.50;;;0.50;;
76121;SDS011;70471;53.200;6.080;2023-11-21T20:25:58;0.70;;;0.70;;
76121;SDS011;70471;53.200;6.080;2023-11-21T20:30:53;0.68;;;0.60;;
76121;SDS011;70471;53.200;6.080;2023-11-21T20:35:45;0.82;;;0.50;;
76121;SDS011;70471;53.200;6.080;2023-11-21T20:40:38;0.75;;;0.70;;
76121;SDS011;70471;53.200;6.080;2023-11-21T20:45:30;1.40;;;0.70;;
76121;SDS011;70471;53.200;6.080;2023-11-21T20:50:24;1.50;;;0.65;;
76121;SDS011;70471;53.200;6.080;2023-11-21T20:55:16;0.65;;;0.50;;
76121;SDS011;70471;53.200;6.080;2023-11-21T21:00:10;0.50;;;0.50;;
76121;SDS011;70471;53.200;6.080;2023-11-21T21:05:05;1.35;;;0.70;;
76121;SDS011;70471;53.200;6.080;2023-11-21T21:10:01;1.15;;;0.80;;
76121;SDS011;70471;53.200;6.080;2023-11-21T21:14:53;0.60;;;0.43;;
76121;SDS011;70471;53.200;6.080;2023-11-21T21:19:47;1.02;;;0.60;;
76121;SDS011;70471;53.200;6.080;2023-11-21T21:24:39;0.82;;;0.60;;
76121;SDS011;70471;53.200;6.080;2023-11-21T21:29:33;1.60;;;0.70;;
76121;SDS011;70471;53.200;6.080;2023-11-21T21:34:24;0.60;;;0.50;;
76121;SDS011;70471;53.200;6.080;2023-11-21T21:39:16;0.90;;;0.80;;
76121;SDS011;70471;53.200;6.080;2023-11-21T21:44:09;1.20;;;0.70;;
76121;SDS011;70471;53.200;6.080;2023-11-21T21:49:03;1.85;;;0.50;;
76121;SDS011;70471;53.200;6.080;2023-11-21T21:53:55;0.50;;;0.45;;
76121;SDS011;70471;53.200;6.080;2023-11-21T21:58:47;0.50;;;0.50;;
76121;SDS011;70471;53.200;6.080;2023-11-21T22:03:40;1.02;;;0.50;;
76121;SDS011;70471;53.200;6.080;2023-11-21T22:08:33;0.50;;;0.50;;
76121;SDS011;70471;53.200;6.080;2023-11-21T22:13:25;0.60;;;0.50;;
76121;SDS011;70471;53.200;6.080;2023-11-21T22:18:18;0.77;;;0.60;;
76121;SDS011;70471;53.200;6.080;2023-11-21T22:23:10;0.70;;;0.50;;
76121;SDS011;70471;53.200;6.080;2023-11-21T22:28:03;1.05;;;0.40;;
76121;SDS011;70471;53.200;6.080;2023-11-21T22:32:56;0.50;;;0.50;;
76121;SDS011;70471;53.200;6.080;2023-11-21T22:37:48;0.70;;;0.50;;
76121;SDS011;70471;53.200;6.080;2023-11-21T22:42:40;0.47;;;0.40;;
76121;SDS011;70471;53.200;6.080;2023-11-21T22:47:34;0.77;;;0.43;;
76121;SDS011;70471;53.200;6.080;2023-11-21T22:52:26;0.63;;;0.60;;
76121;SDS011;70471;53.200;6.080;2023-11-21T22:57:19;0.47;;;0.47;;
76121;SDS011;70471;53.200;6.080;2023-11-21T23:02:11;0.88;;;0.60;;
76121;SDS011;70471;53.200;6.080;2023-11-21T23:07:05;0.52;;;0.50;;
76121;SDS011;70471;53.200;6.080;2023-11-21T23:11:57;0.45;;;0.40;;
76121;SDS011;70471;53.200;6.080;2023-11-21T23:16:49;0.77;;;0.70;;
76121;SDS011;70471;53.200;6.080;2023-11-21T23:21:42;0.60;;;0.40;;
76121;SDS011;70471;53.200;6.080;2023-11-21T23:26:36;0.65;;;0.40;;
76121;SDS011;70471;53.200;6.080;2023-11-21T23:31:29;0.65;;;0.60;;
76121;SDS011;70471;53.200;6.080;2023-11-21T23:36:21;0.40;;;0.40;;
76121;SDS011;70471;53.200;6.080;2023-11-21T23:41:14;0.52;;;0.40;;
76121;SDS011;70471;53.200;6.080;2023-11-21T23:46:10;0.60;;;0.50;;
76121;SDS011;70471;53.200;6.080;2023-11-21T23:51:02;0.60;;;0.50;;
76121;SDS011;70471;53.200;6.080;2023-11-21T23:55:54;0.50;;;0.50;;
